Nearby METAR Reports

 

KNFG - Camp Pendleton, California, USA
Distance from station: WNW 5mi, 8km
Updated: Thu, 19-Oct-2017 12:57pm PDT
Mostly cloudy
Mostly cloudy
 Wind from WSW
Wind: WSW 8 mph , 13 km/h
Temperature: 73°F , 23°C
Dew Point: 61°F , 16°C
Humidity: 65%
Barometer: 29.90 inHg , 1012.5 hPa
Clouds: Mostly cloudy
Visibility: 8 miles , 13 km
Cloud details: Mostly cloudy 2500 ft
2017/10/19 19:57 KNFG 191957Z 25007KT 8SM BKN025 23/16 A2990 RMK AO2 SLP123 T02280156
KOKB - Oceanside, California, USA
Distance from station: WSW 6mi, 10km
Updated: Thu, 19-Oct-2017 12:52pm PDT
Clear
Clear
 Wind from SW
Wind: SW 8 mph , 13 km/h
Temperature: 73°F , 23°C
Dew Point: 61°F , 16°C
Humidity: 65%
Barometer: 29.90 inHg , 1012.5 hPa
Clouds: Clear
Visibility: 7 miles , 11 km
2017/10/19 19:52 KOKB 191952Z AUTO 23007KT 7SM CLR 23/16 A2990 RMK AO2 SLP123 T02330161
 
KCRQ - Carlsbad, California, USA
Distance from station: SSW 8mi, 13km
Updated: Thu, 19-Oct-2017 12:53pm PDT
Few Clouds
Few Clouds
 Wind from WSW
Wind: WSW 9 mph , 15 km/h
Temperature: 70°F , 21°C
Dew Point: 61°F , 16°C
Humidity: 73%
Barometer: 29.90 inHg , 1012.5 hPa
Clouds: Few Clouds
Visibility: 9 miles , 14 km
Cloud details: Few Clouds 1900 ft
2017/10/19 19:53 KCRQ 191953Z AUTO 24008KT 9SM FEW019 21/16 A2990 RMK AO2 SLP122 T02110161
KNXF - Oceanside/Red-B, California, USA
Distance from station: WNW 12mi, 19km
Updated: Thu, 19-Oct-2017 12:56pm PDT
Clear
Clear
 Wind from SSW
Wind: SSW 7 mph , 11 km/h
Temperature: 72°F , 22°C
Dew Point: 63°F , 17°C
Humidity: 73%
Barometer: 29.91 inHg , 1012.9 hPa
Clouds: Clear
Visibility: 7 miles , 11 km
2017/10/19 19:56 KNXF 191956Z AUTO 21006KT 7SM CLR 22/17 A2991 RMK AO2 SLP211 T02220167 $
 
KSNA - Costa Mesa, California, USA
Distance from station: NW 46mi, 74km
Updated: Thu, 19-Oct-2017 12:53pm PDT
Mostly cloudy
Mostly cloudy
 Wind from SSW
Wind: SSW 8 mph , 13 km/h
Temperature: 73°F , 23°C
Dew Point: 61°F , 16°C
Humidity: 65%
Barometer: 29.89 inHg , 1012.2 hPa
Clouds: Mostly cloudy
Visibility: 10 miles , 16 km
Cloud details: Partly cloudy 14000 ft
Mostly cloudy 21000 ft
2017/10/19 19:53 KSNA 191953Z 20007KT 10SM SCT140 BKN210 23/16 A2989 RMK AO2 SLP120 T02280161
KCDC - Cedar City, Utah, USA
Distance from station: S 5mi, 8km
Updated: Thu, 19-Oct-2017 12:53pm PDT
Overcast
Overcast
 Wind from SW
Wind: SW 15 mph , 24 km/h, Gust: 23 mph , 37 km/h
Temperature: 72°F , 22°C
Dew Point: 34°F , 1°C
Humidity: 25%
Barometer: 29.98 inHg , 1015.2 hPa
Clouds: Overcast
Visibility: 10 miles , 16 km
Cloud details: Mostly cloudy 9000 ft
Overcast 11000 ft
2017/10/19 19:53 KCDC 191953Z AUTO 23013G20KT 10SM BKN090 OVC110 22/01 A2998 RMK AO2 SLP097 T02220011